Time;durP1;ratioP1;P1;durP2;ratioP2;P2;SDS_P1;SDS_P2;PMS_P1;PMS_P2;Temp;Humidity;BMP_temperature;BMP_pressure;BME280_temperature;BME280_humidity;BME280_pressure;Samples;Min_cycle;Max_cycle;Signal;HPM_P1;HPM_P2
2023/01/24 00:00:49;;;;;;;14.18;6.57;;;3.10;99.90;;;;;;4938729;28;20206;-69
2023/01/24 00:03:15;;;;;;;10.20;4.47;;;3.00;99.90;;;;;;4972781;28;20065;-69
2023/01/24 00:05:48;;;;;;;6.55;3.08;;;3.00;99.90;;;;;;4954695;28;20089;-69
2023/01/24 00:08:18;;;;;;;7.45;3.50;;;3.00;99.90;;;;;;4955020;28;20070;-69
2023/01/24 00:10:45;;;;;;;8.73;4.55;;;3.00;99.90;;;;;;4954762;28;20038;-69
2023/01/24 00:13:13;;;;;;;12.27;4.57;;;3.00;99.90;;;;;;4955223;28;20130;-69
2023/01/24 00:15:39;;;;;;;8.52;3.92;;;3.00;99.90;;;;;;4971976;28;20101;-70
2023/01/24 00:18:05;;;;;;;8.80;3.85;;;3.00;99.90;;;;;;4971799;28;20031;-69
2023/01/24 00:20:31;;;;;;;11.65;3.55;;;3.00;99.90;;;;;;4955279;28;20034;-69
2023/01/24 00:22:57;;;;;;;8.35;3.92;;;3.00;99.90;;;;;;4971367;28;20038;-69
2023/01/24 00:25:23;;;;;;;7.55;3.83;;;2.90;99.90;;;;;;4972486;28;20521;-69
2023/01/24 00:27:49;;;;;;;6.72;3.28;;;2.90;99.90;;;;;;4970808;28;20038;-70
2023/01/24 00:30:15;;;;;;;13.68;3.92;;;3.00;99.90;;;;;;4972273;28;20046;-70
2023/01/24 00:32:41;;;;;;;9.68;3.80;;;2.90;99.90;;;;;;4954450;28;20042;-70
2023/01/24 00:35:07;;;;;;;6.93;3.80;;;3.10;99.90;;;;;;4972203;28;20117;-70
2023/01/24 00:37:33;;;;;;;7.93;4.22;;;3.10;99.90;;;;;;4952302;28;20069;-69
2023/01/24 00:39:58;;;;;;;8.32;3.50;;;3.00;99.90;;;;;;4972112;28;20487;-70
2023/01/24 00:42:24;;;;;;;10.68;3.63;;;3.00;99.90;;;;;;4952928;28;20034;-70
2023/01/24 00:44:50;;;;;;;8.10;3.72;;;3.00;99.90;;;;;;4971843;28;20109;-70
2023/01/24 00:47:16;;;;;;;6.32;3.05;;;3.00;99.90;;;;;;4971053;28;20035;-69
2023/01/24 00:49:41;;;;;;;6.38;2.95;;;2.90;99.90;;;;;;4971940;28;20092;-70
2023/01/24 00:52:07;;;;;;;5.97;4.18;;;3.00;99.90;;;;;;4971171;28;20030;-70
2023/01/24 00:54:33;;;;;;;8.90;4.05;;;2.90;99.90;;;;;;4970744;28;20043;-70
2023/01/24 00:56:58;;;;;;;6.28;3.28;;;2.90;99.90;;;;;;4970105;28;20031;-70
2023/01/24 00:59:24;;;;;;;3.85;2.83;;;2.90;99.90;;;;;;4971997;28;20038;-70
2023/01/24 01:01:50;;;;;;;8.98;3.72;;;2.90;99.90;;;;;;4970833;28;20089;-70
2023/01/24 01:04:16;;;;;;;11.75;4.18;;;2.80;99.90;;;;;;4972205;28;20162;-70
2023/01/24 01:06:44;;;;;;;4.88;3.00;;;2.80;99.90;;;;;;4969934;28;20030;-70
2023/01/24 01:09:10;;;;;;;8.68;3.20;;;2.70;99.90;;;;;;4971920;28;20046;-70
2023/01/24 01:11:41;;;;;;;10.25;4.53;;;2.70;99.90;;;;;;4970133;28;20391;-70
2023/01/24 01:14:08;;;;;;;5.93;3.75;;;2.70;99.90;;;;;;4971857;28;20035;-70
2023/01/24 01:16:37;;;;;;;11.13;4.47;;;2.80;99.90;;;;;;4952966;28;20177;-70
2023/01/24 01:19:04;;;;;;;5.50;3.53;;;2.80;99.90;;;;;;4954913;28;20038;-70
2023/01/24 01:21:30;;;;;;;7.75;3.97;;;2.80;99.90;;;;;;4936521;28;20030;-70
2023/01/24 01:23:55;;;;;;;7.35;3.67;;;2.80;99.90;;;;;;4954322;28;20093;-70
2023/01/24 01:26:22;;;;;;;5.20;2.50;;;2.80;99.90;;;;;;4970108;28;20045;-70
2023/01/24 01:28:48;;;;;;;5.80;2.53;;;2.80;99.90;;;;;;4971715;28;20384;-69
2023/01/24 01:31:15;;;;;;;8.05;4.03;;;2.80;99.90;;;;;;4952981;28;20498;-69
2023/01/24 01:33:42;;;;;;;10.60;4.65;;;2.80;99.90;;;;;;4954112;28;20042;-69
2023/01/24 01:36:08;;;;;;;5.20;2.47;;;2.80;99.90;;;;;;4952479;28;20055;-69
2023/01/24 01:38:34;;;;;;;11.73;3.55;;;2.90;99.90;;;;;;4953739;28;20067;-69
2023/01/24 01:41:00;;;;;;;10.02;4.15;;;2.90;99.90;;;;;;4970530;28;20114;-69
2023/01/24 01:43:29;;;;;;;8.38;3.92;;;3.00;99.90;;;;;;4971499;28;20475;-71
2023/01/24 01:46:20;;;;;;;9.38;3.15;;;3.00;99.90;;;;;;4970559;28;20035;-71
2023/01/24 01:48:57;;;;;;;7.63;4.05;;;3.00;99.90;;;;;;4954753;28;20105;-69
2023/01/24 01:51:37;;;;;;;4.45;2.47;;;2.90;99.90;;;;;;4970543;28;20070;-69
2023/01/24 01:54:30;;;;;;;6.97;3.17;;;3.00;99.90;;;;;;4955053;28;20077;-69
2023/01/24 01:57:11;;;;;;;4.35;2.33;;;3.00;99.90;;;;;;4969699;28;20126;-69
2023/01/24 01:59:53;;;;;;;6.05;2.78;;;3.10;99.90;;;;;;4949621;28;20023;-69
2023/01/24 02:02:22;;;;;;;6.05;2.80;;;3.10;99.90;;;;;;4964856;28;20023;-69
2023/01/24 02:05:02;;;;;;;6.90;3.33;;;3.10;99.90;;;;;;4967733;28;20030;-70
2023/01/24 02:07:36;;;;;;;10.07;4.83;;;3.00;99.90;;;;;;4943547;28;20515;-70
2023/01/24 02:10:04;;;;;;;5.82;3.15;;;3.00;99.90;;;;;;4969429;28;20431;-70
2023/01/24 02:12:38;;;;;;;7.00;4.05;;;3.00;99.90;;;;;;4970326;28;20030;-70
2023/01/24 02:17:55;;;;;;;8.13;3.22;;;3.00;99.90;;;;;;4968454;28;20042;-69
2023/01/24 02:20:48;;;;;;;10.48;3.50;;;3.00;99.90;;;;;;4953712;28;20031;-69
2023/01/24 02:24:02;;;;;;;5.38;3.38;;;3.10;99.90;;;;;;4962059;28;20082;-69
2023/01/24 02:26:28;;;;;;;10.30;4.07;;;3.10;99.90;;;;;;4957950;28;20466;-70
2023/01/24 02:29:12;;;;;;;9.48;3.33;;;3.20;99.90;;;;;;4974362;28;20031;-70
2023/01/24 02:32:06;;;;;;;5.65;3.30;;;3.20;99.90;;;;;;4967745;23;20054;-86
2023/01/24 02:34:31;;;;;;;9.45;3.92;;;3.10;99.90;;;;;;4953271;28;20483;-87
2023/01/24 02:37:06;;;;;;;9.93;3.80;;;3.10;99.90;;;;;;4973006;28;20134;-87
2023/01/24 02:39:40;;;;;;;5.60;3.25;;;3.10;99.90;;;;;;4955810;29;20031;-87
2023/01/24 02:42:11;;;;;;;7.72;3.90;;;3.10;99.90;;;;;;4965325;28;20036;-86
2023/01/24 02:45:04;;;;;;;4.47;3.05;;;3.20;99.90;;;;;;4962178;28;20023;-86
2023/01/24 02:47:35;;;;;;;6.25;3.95;;;3.20;99.90;;;;;;4964072;28;20126;-87
2023/01/24 02:50:03;;;;;;;6.00;3.28;;;3.20;99.90;;;;;;4960948;28;20085;-86
2023/01/24 02:55:13;;;;;;;6.82;4.72;;;3.10;99.90;;;;;;4975509;28;20038;-86
2023/01/24 03:00:24;;;;;;;9.60;4.47;;;3.10;99.90;;;;;;4972771;28;20023;-86
2023/01/24 03:02:49;;;;;;;10.32;4.20;;;3.20;99.90;;;;;;4975353;28;20735;-86
2023/01/24 03:05:15;;;;;;;7.28;3.22;;;3.20;99.90;;;;;;4975151;28;20054;-86
2023/01/24 03:07:43;;;;;;;8.85;3.50;;;3.30;99.90;;;;;;4967950;28;20034;-86
2023/01/24 03:10:15;;;;;;;4.60;2.08;;;3.20;99.90;;;;;;4974077;28;20034;-86
2023/01/24 03:34:50;;;;;;;7.50;4.60;;;3.00;99.90;;;;;;4972578;28;20060;-86
2023/01/24 03:40:14;;;;;;;5.18;2.83;;;3.00;99.90;;;;;;4968924;28;20042;-85
2023/01/24 03:42:47;;;;;;;8.25;4.38;;;3.00;99.90;;;;;;4960029;28;20039;-85
2023/01/24 03:45:30;;;;;;;5.40;2.67;;;3.10;99.90;;;;;;4966537;28;20390;-86
2023/01/24 03:47:59;;;;;;;7.43;2.85;;;3.10;99.90;;;;;;4971526;28;20081;-86
2023/01/24 03:53:24;;;;;;;6.53;3.85;;;3.10;99.90;;;;;;4955814;28;20031;-86
2023/01/24 03:55:59;;;;;;;10.02;4.00;;;3.00;99.90;;;;;;4957028;28;20041;-85
2023/01/24 03:58:27;;;;;;;7.55;3.92;;;3.00;99.90;;;;;;4971849;28;20053;-86
2023/01/24 04:00:53;;;;;;;7.35;3.33;;;3.10;99.90;;;;;;4971138;28;20033;-86
2023/01/24 04:03:20;;;;;;;8.07;2.58;;;3.10;99.90;;;;;;4973667;28;20035;-86
2023/01/24 04:05:49;;;;;;;7.80;3.92;;;3.20;99.90;;;;;;4966663;28;20054;-85
2023/01/24 04:08:17;;;;;;;7.57;4.25;;;3.20;99.90;;;;;;4963321;28;20023;-86
2023/01/24 04:21:04;;;;;;;4.72;2.75;;;3.10;99.90;;;;;;5107140;23;20057;-84
2023/01/24 04:23:31;;;;;;;7.03;3.70;;;3.20;99.90;;;;;;5012261;28;20037;-85
2023/01/24 04:25:59;;;;;;;3.78;2.60;;;3.20;99.90;;;;;;5012981;28;20041;-85
2023/01/24 04:28:26;;;;;;;7.57;4.32;;;3.20;99.90;;;;;;5009617;28;20066;-84
2023/01/24 04:30:59;;;;;;;9.13;4.00;;;3.20;99.90;;;;;;5012025;28;20053;-86
2023/01/24 04:33:26;;;;;;;5.88;3.10;;;3.10;99.90;;;;;;5010873;28;20133;-85
2023/01/24 04:35:58;;;;;;;6.30;3.47;;;3.00;99.90;;;;;;5012959;28;20494;-84
2023/01/24 04:38:24;;;;;;;5.75;3.42;;;3.10;99.90;;;;;;5010528;28;20509;-87
2023/01/24 04:40:59;;;;;;;6.25;3.42;;;3.20;99.90;;;;;;4995305;28;20109;-87
2023/01/24 04:43:25;;;;;;;10.55;3.85;;;3.10;99.90;;;;;;5005382;28;20053;-85
2023/01/24 04:45:55;;;;;;;5.20;2.60;;;3.10;99.90;;;;;;4991659;28;20030;-86
2023/01/24 04:48:21;;;;;;;6.00;2.17;;;3.10;99.90;;;;;;4994436;28;20026;-86
2023/01/24 04:50:47;;;;;;;7.43;3.70;;;3.20;99.90;;;;;;5012136;28;20037;-86
2023/01/24 04:53:12;;;;;;;7.72;3.35;;;3.20;99.90;;;;;;5012425;28;20041;-86
2023/01/24 04:55:38;;;;;;;5.20;2.53;;;3.20;99.90;;;;;;5013721;28;20113;-86
2023/01/24 04:58:04;;;;;;;8.73;3.50;;;3.20;99.90;;;;;;5013034;28;20465;-86
2023/01/24 05:08:22;;;;;;;5.32;2.35;;;3.20;99.90;;;;;;5051795;23;20461;-86
2023/01/24 05:10:48;;;;;;;7.30;2.50;;;3.20;99.90;;;;;;5023115;28;20033;-85
2023/01/24 05:13:14;;;;;;;5.90;3.50;;;3.20;99.90;;;;;;5028646;28;20057;-85
2023/01/24 05:15:47;;;;;;;7.03;2.88;;;3.20;99.90;;;;;;5017256;28;20025;-87
2023/01/24 05:18:13;;;;;;;7.38;2.55;;;3.10;99.90;;;;;;5009443;28;20513;-86
2023/01/24 05:20:39;;;;;;;6.10;2.55;;;3.10;99.90;;;;;;5012917;28;20026;-86
2023/01/24 05:23:04;;;;;;;6.03;2.20;;;3.20;99.90;;;;;;5002393;28;20026;-86
2023/01/24 05:25:30;;;;;;;5.72;3.47;;;3.00;99.90;;;;;;4995423;28;20038;-86
2023/01/24 05:27:56;;;;;;;4.90;2.22;;;3.00;99.90;;;;;;4999443;28;20110;-85
2023/01/24 05:30:21;;;;;;;11.48;3.17;;;3.00;99.90;;;;;;4992824;28;20045;-86
2023/01/24 05:32:47;;;;;;;5.05;2.67;;;3.00;99.90;;;;;;4984428;28;20026;-87
2023/01/24 05:35:13;;;;;;;8.45;3.42;;;3.00;99.90;;;;;;4969189;28;20035;-87
2023/01/24 05:37:39;;;;;;;4.65;2.95;;;3.00;99.90;;;;;;4999971;28;20034;-87
2023/01/24 05:40:06;;;;;;;5.47;2.17;;;3.00;99.90;;;;;;5001059;28;20112;-84
2023/01/24 05:42:32;;;;;;;6.45;3.08;;;3.00;99.90;;;;;;4994384;28;20081;-84
2023/01/24 05:44:58;;;;;;;5.75;2.83;;;3.10;99.90;;;;;;4989174;28;20030;-81
2023/01/24 05:47:24;;;;;;;6.47;3.05;;;3.10;99.90;;;;;;4997358;28;20034;-81
2023/01/24 05:49:50;;;;;;;10.02;3.30;;;3.00;99.90;;;;;;5006098;28;20030;-79
2023/01/24 05:52:20;;;;;;;7.95;4.05;;;3.00;99.90;;;;;;4958184;28;20108;-80
2023/01/24 05:54:48;;;;;;;5.40;3.10;;;3.00;99.90;;;;;;4980363;28;20046;-78
2023/01/24 05:57:15;;;;;;;7.35;2.78;;;3.00;99.90;;;;;;4985795;28;20069;-78
2023/01/24 05:59:40;;;;;;;6.93;3.22;;;2.90;99.90;;;;;;5002742;28;20026;-77
2023/01/24 06:02:06;;;;;;;7.00;3.22;;;2.90;99.90;;;;;;5002706;28;20096;-78
2023/01/24 06:04:32;;;;;;;5.72;2.95;;;3.00;99.90;;;;;;5000571;28;20046;-78
2023/01/24 06:06:57;;;;;;;5.80;3.35;;;3.00;99.90;;;;;;5013121;28;20030;-78
2023/01/24 06:09:23;;;;;;;4.80;2.72;;;3.10;99.90;;;;;;5014234;28;20527;-78
2023/01/24 06:11:49;;;;;;;4.85;2.92;;;3.20;99.90;;;;;;5011512;28;20502;-78
2023/01/24 06:14:15;;;;;;;5.80;3.65;;;3.10;99.90;;;;;;4993042;28;20176;-78
2023/01/24 06:16:44;;;;;;;10.95;3.75;;;3.00;99.90;;;;;;5010220;28;20103;-78
2023/01/24 06:19:13;;;;;;;11.50;4.45;;;3.10;99.90;;;;;;5014089;28;20389;-78
2023/01/24 06:21:47;;;;;;;7.88;2.67;;;3.10;99.90;;;;;;5011122;28;20028;-79
2023/01/24 06:24:22;;;;;;;6.35;3.03;;;3.10;99.90;;;;;;5004782;28;20117;-77
2023/01/24 06:26:50;;;;;;;9.75;4.40;;;2.90;99.90;;;;;;4989911;28;20049;-77
2023/01/24 06:29:17;;;;;;;7.40;3.47;;;2.80;99.90;;;;;;5005658;28;20033;-77
2023/01/24 06:32:20;;;;;;;6.57;3.60;;;2.80;99.90;;;;;;5008352;28;20033;-79
2023/01/24 06:35:28;;;;;;;9.45;3.97;;;2.80;99.90;;;;;;4982270;28;20030;-77
2023/01/24 06:37:54;;;;;;;5.55;3.58;;;3.00;99.90;;;;;;4958974;28;20037;-77
2023/01/24 06:40:24;;;;;;;7.78;3.20;;;3.00;99.90;;;;;;5012679;28;20077;-78
2023/01/24 06:42:52;;;;;;;8.20;3.85;;;2.90;99.90;;;;;;5012246;28;20026;-77
2023/01/24 06:45:19;;;;;;;7.72;3.60;;;3.00;99.90;;;;;;5008899;28;20037;-77
2023/01/24 06:47:45;;;;;;;7.35;3.80;;;3.10;99.90;;;;;;5011005;28;20037;-77
2023/01/24 06:50:16;;;;;;;7.28;3.22;;;3.10;99.90;;;;;;5011268;28;20038;-77
2023/01/24 06:52:46;;;;;;;11.82;3.70;;;3.10;99.90;;;;;;5012804;28;20041;-77
2023/01/24 06:55:12;;;;;;;11.38;3.42;;;3.00;99.90;;;;;;5012016;28;20478;-77
2023/01/24 06:57:37;;;;;;;9.95;5.40;;;3.00;99.90;;;;;;5011820;28;20022;-77
2023/01/24 07:00:08;;;;;;;10.20;3.38;;;3.00;99.90;;;;;;5009101;28;20029;-78
2023/01/24 07:02:33;;;;;;;9.38;4.60;;;3.10;99.90;;;;;;4993278;28;20030;-71
2023/01/24 07:04:59;;;;;;;7.05;3.72;;;2.90;99.90;;;;;;4989487;28;20038;-79
2023/01/24 07:07:25;;;;;;;8.82;3.92;;;2.90;99.90;;;;;;5007926;28;20034;-77
2023/01/24 07:09:51;;;;;;;11.02;3.30;;;2.80;99.90;;;;;;4990404;28;20504;-73
2023/01/24 07:12:16;;;;;;;6.53;4.32;;;2.90;99.90;;;;;;5005868;28;20033;-74
2023/01/24 07:14:43;;;;;;;6.00;2.80;;;2.90;99.90;;;;;;5010904;28;20132;-79
2023/01/24 07:17:09;;;;;;;8.32;3.67;;;2.80;99.90;;;;;;5010044;28;20032;-73
2023/01/24 07:19:35;;;;;;;6.32;3.85;;;2.80;99.90;;;;;;5009096;28;20061;-79
2023/01/24 07:22:01;;;;;;;10.52;4.38;;;2.70;99.90;;;;;;5012046;28;20026;-74
2023/01/24 07:24:29;;;;;;;6.70;3.78;;;2.80;99.90;;;;;;5008878;28;20037;-78
2023/01/24 07:26:56;;;;;;;9.15;3.17;;;2.80;99.90;;;;;;5009811;28;20384;-70
2023/01/24 07:29:23;;;;;;;7.80;3.05;;;2.90;99.90;;;;;;5009087;28;20105;-75
2023/01/24 07:31:50;;;;;;;8.23;3.85;;;3.00;99.90;;;;;;5003535;28;20030;-79
2023/01/24 07:34:17;;;;;;;6.30;3.05;;;3.00;99.90;;;;;;5011134;28;20037;-74
2023/01/24 07:36:47;;;;;;;10.57;3.33;;;3.00;99.90;;;;;;4993595;28;20484;-71
2023/01/24 07:39:14;;;;;;;8.68;3.65;;;3.00;99.90;;;;;;5008436;28;20446;-71
2023/01/24 07:41:43;;;;;;;6.03;4.10;;;3.10;99.90;;;;;;5005303;28;20561;-72
2023/01/24 07:44:09;;;;;;;7.97;3.22;;;3.10;99.90;;;;;;5003490;28;20048;-73
2023/01/24 07:46:36;;;;;;;7.75;3.83;;;3.00;99.90;;;;;;5010320;28;20030;-73
2023/01/24 07:49:02;;;;;;;8.52;3.53;;;3.00;99.90;;;;;;4977095;28;20026;-73
2023/01/24 07:51:28;;;;;;;7.75;4.60;;;3.10;99.90;;;;;;5010206;28;20026;-73
2023/01/24 07:53:53;;;;;;;5.93;3.25;;;3.10;99.90;;;;;;5002272;28;20044;-74
2023/01/24 07:56:19;;;;;;;10.40;4.28;;;3.10;99.90;;;;;;5010679;28;20448;-73
2023/01/24 07:58:45;;;;;;;9.30;3.58;;;3.10;99.90;;;;;;5008619;28;20042;-73
2023/01/24 08:01:17;;;;;;;10.20;3.60;;;3.20;99.90;;;;;;5010417;28;20132;-72
2023/01/24 08:03:43;;;;;;;5.78;3.53;;;3.00;99.90;;;;;;5009033;28;20470;-72
2023/01/24 08:06:08;;;;;;;8.00;4.57;;;3.10;99.90;;;;;;5009940;28;20071;-72
2023/01/24 08:08:34;;;;;;;8.98;3.83;;;3.10;99.90;;;;;;5007874;28;20034;-72
2023/01/24 08:11:00;;;;;;;10.23;4.38;;;3.10;99.90;;;;;;5004300;28;20074;-73
2023/01/24 08:13:25;;;;;;;5.65;2.83;;;3.10;99.90;;;;;;5010870;28;20030;-74
2023/01/24 08:15:51;;;;;;;10.63;3.75;;;3.00;99.90;;;;;;5010537;28;20489;-73
2023/01/24 08:18:17;;;;;;;8.40;4.10;;;3.00;99.90;;;;;;5010218;28;20478;-73
2023/01/24 08:20:43;;;;;;;9.88;3.97;;;3.10;99.90;;;;;;5007200;28;20026;-73
2023/01/24 08:23:09;;;;;;;8.50;4.05;;;3.00;99.90;;;;;;4974745;28;20038;-73
2023/01/24 08:25:34;;;;;;;6.53;3.47;;;3.00;99.90;;;;;;5005261;28;20113;-72
2023/01/24 08:28:00;;;;;;;13.70;4.68;;;3.10;99.90;;;;;;5009666;28;20041;-71
2023/01/24 08:30:26;;;;;;;12.43;5.10;;;3.10;99.90;;;;;;5017749;23;20044;-66
2023/01/24 08:33:00;;;;;;;9.95;4.03;;;3.10;99.90;;;;;;5008181;28;20033;-65
2023/01/24 08:35:26;;;;;;;10.35;3.92;;;3.00;99.90;;;;;;4992192;28;20065;-65
2023/01/24 08:37:52;;;;;;;7.47;3.25;;;3.00;99.90;;;;;;5009621;28;20073;-66
2023/01/24 08:40:18;;;;;;;6.90;4.05;;;3.10;99.90;;;;;;5007578;28;20034;-65
2023/01/24 08:42:44;;;;;;;10.40;3.75;;;3.10;99.90;;;;;;4986705;28;20042;-65
2023/01/24 08:45:10;;;;;;;9.20;3.83;;;3.20;99.90;;;;;;4990996;28;20022;-65
2023/01/24 08:47:36;;;;;;;6.53;4.38;;;3.10;99.90;;;;;;4987790;28;20057;-65
2023/01/24 08:50:02;;;;;;;5.75;3.90;;;3.20;99.90;;;;;;4991451;28;20037;-65
2023/01/24 08:52:28;;;;;;;17.05;5.47;;;3.20;99.90;;;;;;4984227;28;20034;-65
2023/01/24 08:54:54;;;;;;;7.15;3.53;;;3.30;99.90;;;;;;4990702;28;20038;-66
2023/01/24 08:57:19;;;;;;;12.88;5.22;;;3.30;99.90;;;;;;4988996;28;20118;-66
2023/01/24 08:59:45;;;;;;;6.28;3.72;;;3.30;99.90;;;;;;4990491;28;20467;-65
2023/01/24 09:02:16;;;;;;;9.20;4.07;;;3.40;99.90;;;;;;4990198;28;20058;-65
2023/01/24 09:04:42;;;;;;;10.45;4.13;;;3.30;99.90;;;;;;4990564;28;20081;-65
2023/01/24 09:07:11;;;;;;;13.73;4.47;;;3.30;99.90;;;;;;4967470;28;20394;-65
2023/01/24 09:09:37;;;;;;;8.85;4.22;;;3.50;99.90;;;;;;4990578;28;20046;-67
2023/01/24 09:12:03;;;;;;;9.07;4.05;;;3.40;99.90;;;;;;4987834;28;20057;-66
2023/01/24 09:14:29;;;;;;;14.70;5.25;;;3.40;99.90;;;;;;4990452;28;20043;-65
2023/01/24 09:16:55;;;;;;;10.75;3.67;;;3.50;99.90;;;;;;4987763;28;20061;-66
2023/01/24 09:19:20;;;;;;;8.38;3.42;;;3.40;99.90;;;;;;4990633;28;20062;-65
2023/01/24 09:21:51;;;;;;;9.15;4.93;;;3.30;99.90;;;;;;4990377;28;20040;-66
2023/01/24 09:24:18;;;;;;;13.00;4.18;;;3.40;99.90;;;;;;4982728;28;20422;-66
2023/01/24 09:26:45;;;;;;;7.15;3.83;;;3.50;99.90;;;;;;4988519;28;20040;-66
2023/01/24 09:29:10;;;;;;;10.57;3.65;;;3.60;99.90;;;;;;4990655;28;20034;-65
2023/01/24 09:31:37;;;;;;;8.40;4.55;;;3.70;99.90;;;;;;4990166;28;20049;-65
2023/01/24 09:34:02;;;;;;;12.05;4.65;;;3.70;99.90;;;;;;4992082;28;20095;-65
2023/01/24 09:36:30;;;;;;;12.57;4.72;;;3.80;99.90;;;;;;4992786;28;20026;-66
2023/01/24 09:38:57;;;;;;;9.52;4.05;;;3.90;99.90;;;;;;4993634;28;20030;-66
2023/01/24 09:41:44;;;;;;;10.45;4.95;;;3.90;99.90;;;;;;4992931;28;20026;-66
2023/01/24 09:44:33;;;;;;;13.05;4.95;;;3.90;99.90;;;;;;4976623;28;20125;-67
2023/01/24 09:47:15;;;;;;;12.13;3.38;;;4.00;99.90;;;;;;4992549;28;20061;-66
2023/01/24 09:49:56;;;;;;;13.13;5.38;;;4.00;99.90;;;;;;4993007;28;20026;-66
2023/01/24 09:52:40;;;;;;;7.20;3.45;;;4.10;99.90;;;;;;4992238;28;20455;-66
2023/01/24 09:55:26;;;;;;;8.48;4.30;;;4.00;99.90;;;;;;4976300;28;20052;-66
2023/01/24 09:58:30;;;;;;;5.72;3.63;;;4.10;99.90;;;;;;4989951;28;20030;-66
2023/01/24 10:00:59;;;;;;;7.40;4.50;;;4.00;99.90;;;;;;4992418;28;20057;-66
2023/01/24 10:03:26;;;;;;;9.57;3.75;;;3.70;99.90;;;;;;4992271;28;20030;-65
2023/01/24 10:06:01;;;;;;;11.02;3.60;;;3.70;99.90;;;;;;4988687;28;20030;-66
2023/01/24 10:08:53;;;;;;;17.40;4.18;;;3.70;99.90;;;;;;4991588;28;20778;-67
2023/01/24 10:11:56;;;;;;;7.50;3.65;;;3.80;99.90;;;;;;4992177;28;20084;-67
2023/01/24 10:14:48;;;;;;;7.18;3.05;;;3.90;99.90;;;;;;4979782;28;20607;-66
2023/01/24 10:17:43;;;;;;;;;;;4.00;99.90;;;;;;4992870;28;20565;-67
2023/01/24 10:20:30;;;;;;;12.48;3.67;;;4.00;99.90;;;;;;4992690;28;19920;-66
2023/01/24 10:23:15;;;;;;;8.48;4.53;;;3.80;99.90;;;;;;4990799;28;20049;-67
2023/01/24 10:26:22;;;;;;;8.38;3.67;;;3.80;99.90;;;;;;4992757;28;20030;-67
2023/01/24 10:28:59;;;;;;;6.75;4.00;;;4.00;99.90;;;;;;4974160;28;20038;-67
2023/01/24 10:31:34;;;;;;;8.88;5.40;;;3.90;99.90;;;;;;4983913;28;20031;-67
2023/01/24 10:34:19;;;;;;;10.02;3.85;;;3.80;99.90;;;;;;4991469;28;20069;-67
2023/01/24 10:37:18;;;;;;;17.55;3.72;;;3.80;99.90;;;;;;4990687;28;20038;-70
2023/01/24 10:39:44;;;;;;;14.18;4.85;;;3.70;99.90;;;;;;4987658;28;20581;-68
2023/01/24 10:42:27;;;;;;;14.15;4.70;;;3.80;99.90;;;;;;4991817;28;20074;-67
2023/01/24 10:44:59;;;;;;;7.15;4.20;;;3.90;99.90;;;;;;4991822;28;20084;-72
2023/01/24 10:47:47;;;;;;;9.60;4.45;;;3.70;99.90;;;;;;4987143;28;20037;-73
2023/01/24 10:50:18;;;;;;;11.13;3.47;;;3.80;99.90;;;;;;4992861;28;20026;-72
2023/01/24 10:52:46;;;;;;;9.48;3.75;;;3.90;99.90;;;;;;4993123;28;20065;-68
2023/01/24 10:55:39;;;;;;;5.75;2.80;;;3.80;99.90;;;;;;4992972;28;20125;-67
2023/01/24 10:58:26;;;;;;;9.15;4.20;;;3.70;99.90;;;;;;4974325;28;20450;-68
2023/01/24 11:00:58;;;;;;;7.45;3.72;;;3.70;99.90;;;;;;4987170;28;20027;-69
2023/01/24 11:03:34;;;;;;;7.47;3.55;;;3.80;99.90;;;;;;4991274;28;20604;-68
2023/01/24 11:06:02;;;;;;;8.15;2.63;;;3.80;99.90;;;;;;4991688;28;20034;-67
2023/01/24 11:08:37;;;;;;;9.85;4.60;;;3.80;99.90;;;;;;4990832;28;20109;-69
2023/01/24 11:11:22;;;;;;;6.53;2.95;;;3.70;99.90;;;;;;4987382;28;20035;-67
2023/01/24 11:13:48;;;;;;;5.32;2.92;;;3.70;99.90;;;;;;4985943;28;20029;-66
2023/01/24 11:16:17;;;;;;;8.35;3.90;;;3.70;99.90;;;;;;4983029;28;20069;-66
2023/01/24 11:18:58;;;;;;;11.43;3.55;;;3.80;99.90;;;;;;4977832;28;20068;-66
2023/01/24 11:21:24;;;;;;;6.60;3.85;;;3.80;99.90;;;;;;4982995;28;20053;-66
2023/01/24 11:24:06;;;;;;;11.98;4.32;;;3.80;99.90;;;;;;4966874;28;20030;-67
2023/01/24 11:27:13;;;;;;;6.10;3.35;;;3.90;99.90;;;;;;4989046;28;20035;-67
2023/01/24 11:29:39;;;;;;;8.48;4.57;;;3.90;99.90;;;;;;4989026;28;20038;-66
2023/01/24 11:33:01;;;;;;;13.35;4.70;;;3.80;99.90;;;;;;4992395;28;20092;-66
2023/01/24 11:36:10;;;;;;;6.50;3.65;;;3.70;99.90;;;;;;4991496;28;20375;-67
2023/01/24 11:38:42;;;;;;;4.40;2.38;;;3.90;99.90;;;;;;4974203;28;20039;-67
2023/01/24 11:41:27;;;;;;;6.50;3.28;;;3.90;99.90;;;;;;4975176;28;20022;-67
2023/01/24 11:44:04;;;;;;;11.07;4.72;;;3.90;99.90;;;;;;4986678;28;20109;-67
2023/01/24 11:46:48;;;;;;;10.00;3.03;;;4.00;99.90;;;;;;4991199;28;20053;-68
2023/01/24 11:49:39;;;;;;;12.05;4.57;;;3.80;99.90;;;;;;4990382;28;20038;-67
2023/01/24 11:52:42;;;;;;;;;;;3.80;99.90;;;;;;4992200;28;20030;-67
2023/01/24 11:55:42;;;;;;;6.60;3.95;;;3.70;99.90;;;;;;4975593;28;19921;-67
2023/01/24 11:58:32;;;;;;;7.22;3.95;;;3.70;99.90;;;;;;4989287;28;20061;-67
2023/01/24 12:01:21;;;;;;;11.20;3.55;;;3.60;99.90;;;;;;4988874;28;20050;-67
2023/01/24 12:04:32;;;;;;;8.55;3.92;;;3.70;99.90;;;;;;4989941;28;20026;-67
2023/01/24 12:07:19;;;;;;;11.48;4.65;;;3.60;99.90;;;;;;4986041;28;20056;-66
2023/01/24 12:10:13;;;;;;;12.70;4.53;;;3.50;99.90;;;;;;4990943;28;20049;-66
2023/01/24 12:12:49;;;;;;;27.60;4.60;;;3.60;99.90;;;;;;4960837;28;20122;-67
2023/01/24 12:15:38;;;;;;;9.32;4.28;;;3.80;99.90;;;;;;4989083;28;20096;-67
2023/01/24 12:18:23;;;;;;;7.18;3.80;;;3.70;99.90;;;;;;4990667;28;20104;-67
2023/01/24 12:20:59;;;;;;;6.65;3.47;;;3.70;99.90;;;;;;4986325;28;20030;-67
2023/01/24 12:23:59;;;;;;;6.75;3.90;;;3.60;99.90;;;;;;4973023;28;20117;-67
2023/01/24 12:26:44;;;;;;;5.60;3.38;;;3.40;99.90;;;;;;4967344;28;20383;-67
2023/01/24 12:29:42;;;;;;;6.95;3.28;;;3.40;99.90;;;;;;4968550;28;20053;-66
2023/01/24 12:32:31;;;;;;;18.38;5.47;;;3.40;99.90;;;;;;4989578;28;20080;-67
2023/01/24 12:35:23;;;;;;;7.13;2.95;;;3.30;99.90;;;;;;4989592;28;20129;-67
2023/01/24 12:38:03;;;;;;;6.80;3.25;;;3.40;99.90;;;;;;4990189;28;20034;-67
2023/01/24 12:40:58;;;;;;;7.53;3.78;;;3.40;99.90;;;;;;4988077;28;20049;-67
2023/01/24 12:43:46;;;;;;;5.15;3.65;;;3.40;99.90;;;;;;4971221;28;20085;-67
2023/01/24 12:46:24;;;;;;;4.47;3.03;;;3.60;99.90;;;;;;4990323;28;20499;-67
2023/01/24 12:49:26;;;;;;;7.60;3.00;;;3.60;99.90;;;;;;4989281;28;20084;-67
2023/01/24 12:52:33;;;;;;;6.30;3.17;;;3.60;99.90;;;;;;4972996;28;20089;-67
2023/01/24 12:55:14;;;;;;;8.07;3.85;;;3.50;99.90;;;;;;4989574;28;20038;-65
2023/01/24 12:58:08;;;;;;;10.13;4.40;;;3.60;99.90;;;;;;4988832;28;20084;-65
2023/01/24 13:01:01;;;;;;;5.15;2.83;;;3.50;99.90;;;;;;4989666;28;20707;-65
2023/01/24 13:03:58;;;;;;;7.70;4.10;;;3.40;99.90;;;;;;4971282;28;20038;-68
2023/01/24 13:07:02;;;;;;;9.43;2.92;;;3.40;99.90;;;;;;4982761;28;20372;-66
2023/01/24 13:10:08;;;;;;;9.68;3.30;;;3.60;99.90;;;;;;4989575;28;20153;-65
2023/01/24 13:12:34;;;;;;;6.15;2.60;;;3.50;99.90;;;;;;4984952;28;20454;-65
2023/01/24 13:15:23;;;;;;;5.90;2.80;;;3.70;99.90;;;;;;4988030;28;20069;-66
2023/01/24 13:18:06;;;;;;;13.02;2.00;;;3.60;99.90;;;;;;4988628;28;20115;-65
2023/01/24 13:21:20;;;;;;;4.28;2.55;;;3.70;99.90;;;;;;4988000;28;20490;-65
2023/01/24 13:24:39;;;;;;;7.53;2.65;;;3.50;99.90;;;;;;4980264;28;20034;-65
2023/01/24 13:27:23;;;;;;;7.80;3.17;;;3.60;99.90;;;;;;4964107;28;20080;-66
2023/01/24 13:30:00;;;;;;;5.78;2.90;;;3.50;99.90;;;;;;4988428;28;20129;-66
2023/01/24 13:32:27;;;;;;;8.43;3.70;;;3.50;99.90;;;;;;4983539;28;20038;-66
2023/01/24 13:34:56;;;;;;;6.38;3.15;;;3.50;99.90;;;;;;4989343;28;20034;-66
2023/01/24 13:37:31;;;;;;;6.85;3.20;;;3.70;99.90;;;;;;4988454;28;20129;-66
2023/01/24 13:40:20;;;;;;;7.57;3.53;;;3.80;99.90;;;;;;4987981;28;20038;-66
2023/01/24 13:42:46;;;;;;;6.50;3.03;;;3.80;99.90;;;;;;4990091;28;20077;-66
2023/01/24 13:45:40;;;;;;;6.28;2.92;;;3.90;99.90;;;;;;4988037;28;20050;-66
2023/01/24 13:48:44;;;;;;;4.28;2.85;;;4.00;99.90;;;;;;4989696;28;20035;-66
2023/01/24 13:51:27;;;;;;;7.78;3.28;;;3.90;99.90;;;;;;4957697;28;20057;-64
2023/01/24 13:54:20;;;;;;;5.13;3.03;;;3.60;99.90;;;;;;4987418;28;20034;-64
2023/01/24 13:57:26;;;;;;;7.13;3.28;;;3.50;99.90;;;;;;4984282;28;20471;-64
2023/01/24 14:00:15;;;;;;;7.57;3.60;;;3.70;99.90;;;;;;4988500;28;20030;-66
2023/01/24 14:02:50;;;;;;;6.88;3.05;;;3.90;99.90;;;;;;4989736;28;20372;-64
2023/01/24 14:05:33;;;;;;;5.28;2.85;;;4.00;99.90;;;;;;4989017;28;20027;-63
2023/01/24 14:08:13;;;;;;;12.60;7.55;;;4.10;99.90;;;;;;4989572;28;20780;-63
2023/01/24 14:10:45;;;;;;;8.27;4.32;;;4.00;99.90;;;;;;4984485;28;20091;-64
2023/01/24 14:13:55;;;;;;;5.97;3.17;;;4.00;99.90;;;;;;4989594;28;20045;-64
2023/01/24 14:16:23;;;;;;;7.25;2.67;;;4.00;99.90;;;;;;4981843;28;20034;-64
2023/01/24 14:19:12;;;;;;;5.00;3.13;;;4.00;99.90;;;;;;4990716;28;20041;-64
2023/01/24 14:21:56;;;;;;;5.28;2.08;;;4.00;99.90;;;;;;4988386;28;20483;-64
2023/01/24 14:24:36;;;;;;;5.35;2.88;;;3.90;99.90;;;;;;4991711;28;20487;-64
2023/01/24 14:27:20;;;;;;;6.37;2.67;;;3.90;99.90;;;;;;4990685;28;20034;-65